createdAt,value
2019-05-02T00:01:31.417Z,52.47
2019-05-02T00:04:00.686Z,50.93
2019-05-02T00:06:30.160Z,49.17
2019-05-02T00:09:03.831Z,49.83
2019-05-02T00:11:30.920Z,47.53
2019-05-02T00:14:00.347Z,48.17
2019-05-02T00:16:30.224Z,49.97
2019-05-02T00:18:59.487Z,50.00
2019-05-02T00:21:32.938Z,52.83
2019-05-02T00:24:03.015Z,52.87
2019-05-02T00:26:31.016Z,54.23
2019-05-02T00:29:00.267Z,54.40
2019-05-02T00:31:29.613Z,54.90
2019-05-02T00:33:58.870Z,55.77
2019-05-02T00:36:28.141Z,53.80
2019-05-02T00:38:57.743Z,53.73
2019-05-02T00:41:27.041Z,52.67
2019-05-02T00:43:56.328Z,52.57
2019-05-02T00:46:25.648Z,52.47
2019-05-02T00:48:59.638Z,52.40
2019-05-02T00:51:28.997Z,52.60
2019-05-02T00:53:58.238Z,51.40
2019-05-02T00:56:27.544Z,52.60
2019-05-02T00:58:57.100Z,51.77
2019-05-02T01:01:45.344Z,48.93
2019-05-02T01:04:33.847Z,52.50
2019-05-02T01:07:05.483Z,49.33
2019-05-02T01:09:35.821Z,51.60
2019-05-02T01:12:08.421Z,50.10
2019-05-02T01:14:36.446Z,50.80
2019-05-02T01:17:06.116Z,53.70
2019-05-02T01:19:35.669Z,50.10
2019-05-02T01:22:05.183Z,49.17
2019-05-02T01:24:39.970Z,52.50
2019-05-02T01:27:18.633Z,50.93
2019-05-02T01:30:22.652Z,50.73
2019-05-02T01:33:01.373Z,48.27
2019-05-02T01:35:41.237Z,54.33
2019-05-02T01:38:26.368Z,55.33
2019-05-02T01:40:54.991Z,57.57
2019-05-02T01:43:26.325Z,58.67
2019-05-02T01:45:56.059Z,56.60
2019-05-02T01:48:26.331Z,53.70
2019-05-02T01:50:55.606Z,52.80
2019-05-02T01:53:29.175Z,52.53
2019-05-02T01:55:57.743Z,51.93
2019-05-02T01:58:26.901Z,56.53
2019-05-02T02:01:02.381Z,59.63
2019-05-02T02:03:31.685Z,58.30
2019-05-02T02:06:02.769Z,59.27
2019-05-02T02:08:32.476Z,57.03
2019-05-02T02:11:03.231Z,54.90
2019-05-02T02:13:36.689Z,57.03
2019-05-02T02:16:04.560Z,54.67
2019-05-02T02:18:38.833Z,55.17
2019-05-02T02:21:14.770Z,53.47
2019-05-02T02:23:55.866Z,50.20
2019-05-02T02:26:25.349Z,54.55
2019-05-02T02:28:55.124Z,53.07
2019-05-02T02:31:24.429Z,56.77
2019-05-02T02:33:53.769Z,60.20
2019-05-02T02:36:31.237Z,59.77
2019-05-02T02:38:54.711Z,60.37
2019-05-02T02:41:24.048Z,56.93
2019-05-02T02:44:15.099Z,56.73
2019-05-02T02:46:45.784Z,57.20
2019-05-02T02:49:21.647Z,57.07
2019-05-02T02:51:46.217Z,57.83
2019-05-02T02:54:15.570Z,56.97
2019-05-02T02:56:44.964Z,58.63
2019-05-02T02:59:19.280Z,58.27
2019-05-02T03:01:45.358Z,55.43
2019-05-02T03:04:14.723Z,55.83
2019-05-02T03:06:45.296Z,53.07
2019-05-02T03:09:20.195Z,53.30
2019-05-02T03:12:05.170Z,50.83
2019-05-02T03:14:41.042Z,56.80
2019-05-02T03:17:07.167Z,51.30
2019-05-02T03:19:36.492Z,50.53
2019-05-02T03:22:05.803Z,52.07
2019-05-02T03:24:36.803Z,52.27
2019-05-02T03:27:06.282Z,48.63
2019-05-02T03:29:41.394Z,45.80
2019-05-02T03:32:26.203Z,48.03
2019-05-02T03:34:47.421Z,53.13
2019-05-02T03:37:13.546Z,49.77
2019-05-02T03:39:40.103Z,48.10
2019-05-02T03:42:09.374Z,48.87
2019-05-02T03:44:39.958Z,50.63
2019-05-02T03:47:09.526Z,52.17
2019-05-02T03:49:40.839Z,49.07
2019-05-02T03:52:10.248Z,49.03
2019-05-02T03:54:48.658Z,52.73
2019-05-02T03:57:11.853Z,53.43
2019-05-02T03:59:41.883Z,49.30
2019-05-02T04:02:14.237Z,51.00
2019-05-02T04:04:44.220Z,51.13
2019-05-02T04:07:14.535Z,55.90
2019-05-02T04:09:44.168Z,53.13
2019-05-02T04:12:19.058Z,56.20
2019-05-02T04:14:44.534Z,55.30
2019-05-02T04:17:13.798Z,54.90
2019-05-02T04:19:43.091Z,57.63
2019-05-02T04:22:12.590Z,56.53
2019-05-02T04:24:47.723Z,55.93
2019-05-02T04:27:13.895Z,55.93
2019-05-02T04:29:43.627Z,55.43
2019-05-02T04:32:14.427Z,52.00
2019-05-02T04:34:55.643Z,51.37
2019-05-02T04:37:21.058Z,51.53
2019-05-02T04:39:53.757Z,51.43
2019-05-02T04:42:23.235Z,51.97
2019-05-02T04:45:12.891Z,50.83
2019-05-02T04:47:23.664Z,48.30
2019-05-02T04:49:53.337Z,48.37
2019-05-02T04:52:23.656Z,47.80
2019-05-02T04:54:52.943Z,50.93
2019-05-02T04:57:29.321Z,49.73
2019-05-02T05:00:02.527Z,49.10
2019-05-02T05:02:34.254Z,49.60
2019-05-02T05:04:55.539Z,49.17
2019-05-02T05:07:25.096Z,51.20
2019-05-02T05:09:58.398Z,47.53
2019-05-02T05:12:25.432Z,51.27
2019-05-02T05:14:54.720Z,50.60
2019-05-02T05:17:24.978Z,52.97
2019-05-02T05:20:13.747Z,51.93
2019-05-02T05:22:44.182Z,52.90
2019-05-02T05:25:21.210Z,53.07
2019-05-02T05:27:52.651Z,51.60
2019-05-02T05:30:19.726Z,52.63
2019-05-02T05:32:48.980Z,56.30
2019-05-02T05:35:18.282Z,53.20
2019-05-02T05:37:51.521Z,56.50
2019-05-02T05:40:22.605Z,56.57
2019-05-02T05:42:49.852Z,54.40
2019-05-02T05:45:19.142Z,56.67
2019-05-02T05:47:52.469Z,53.77
2019-05-02T05:50:19.451Z,53.93
2019-05-02T05:52:51.693Z,52.53
2019-05-02T05:55:24.091Z,57.07
2019-05-02T05:57:59.611Z,55.73
2019-05-02T06:00:23.240Z,53.17
2019-05-02T06:02:56.737Z,54.33
2019-05-02T06:05:23.941Z,59.00
2019-05-02T06:07:53.302Z,56.47
2019-05-02T06:10:22.680Z,55.07
2019-05-02T06:12:52.002Z,56.23
2019-05-02T06:15:24.120Z,55.27
2019-05-02T06:17:53.492Z,54.27
2019-05-02T06:20:25.763Z,53.50
2019-05-02T06:22:54.932Z,56.40
2019-05-02T06:25:34.371Z,54.80
2019-05-02T06:28:00.134Z,54.90
2019-05-02T06:30:30.995Z,52.93
2019-05-02T06:32:58.937Z,50.97
2019-05-02T06:35:28.579Z,51.90
2019-05-02T06:37:57.926Z,54.03
2019-05-02T06:40:27.205Z,52.03
2019-05-02T06:42:56.505Z,51.73
2019-05-02T06:45:25.797Z,36.20
2019-05-02T06:47:55.143Z,41.77
2019-05-02T06:50:24.859Z,39.87
2019-05-02T06:52:54.261Z,37.43
2019-05-02T06:55:28.113Z,35.57
2019-05-02T06:57:56.937Z,40.33
2019-05-02T07:00:35.331Z,34.00
2019-05-02T07:02:56.979Z,37.27
2019-05-02T07:05:27.384Z,36.67
2019-05-02T07:07:57.388Z,36.77
2019-05-02T07:10:27.597Z,31.37
2019-05-02T07:13:10.205Z,38.50
2019-05-02T07:15:43.106Z,32.23
2019-05-02T07:18:14.420Z,35.90
2019-05-02T07:20:44.162Z,35.90
2019-05-02T07:23:16.368Z,39.60
2019-05-02T07:25:45.277Z,37.37
2019-05-02T07:28:14.605Z,38.07
2019-05-02T07:30:43.970Z,40.37
2019-05-02T07:33:13.305Z,37.47
2019-05-02T07:35:42.995Z,35.03
2019-05-02T07:38:15.392Z,36.97
2019-05-02T07:40:48.169Z,36.97
2019-05-02T07:43:21.169Z,33.20
2019-05-02T07:45:48.006Z,29.70
2019-05-02T07:48:18.936Z,28.00
2019-05-02T07:50:49.222Z,29.93
2019-05-02T07:53:18.537Z,30.03
2019-05-02T07:55:49.209Z,30.30
2019-05-02T07:58:18.680Z,30.23
2019-05-02T08:00:48.021Z,29.53
2019-05-02T08:03:17.573Z,29.37
2019-05-02T08:05:46.853Z,28.57
2019-05-02T08:08:16.423Z,29.50
2019-05-02T08:10:45.717Z,29.13
2019-05-02T08:13:17.480Z,29.37
2019-05-02T08:15:50.794Z,28.40
2019-05-02T08:18:17.045Z,30.23
2019-05-02T08:20:46.421Z,29.73
2019-05-02T08:23:25.254Z,31.23
2019-05-02T08:25:51.344Z,28.60
2019-05-02T08:28:25.512Z,31.10
2019-05-02T08:30:57.136Z,28.47
2019-05-02T08:33:34.597Z,30.00
2019-05-02T08:36:00.768Z,29.80
2019-05-02T08:38:30.034Z,29.90
2019-05-02T08:40:59.294Z,29.43
2019-05-02T08:43:28.526Z,28.50
2019-05-02T08:45:57.811Z,30.53
2019-05-02T08:48:27.038Z,35.03
2019-05-02T08:50:56.322Z,34.13
2019-05-02T08:53:25.547Z,33.20
2019-05-02T08:55:54.835Z,36.97
2019-05-02T08:58:24.060Z,36.33
2019-05-02T09:00:53.355Z,31.50
2019-05-02T09:03:22.591Z,30.50
2019-05-02T09:05:51.840Z,28.47
2019-05-02T09:08:21.070Z,30.40
2019-05-02T09:10:50.714Z,31.97
2019-05-02T09:13:25.934Z,34.60
2019-05-02T09:15:54.318Z,34.33
2019-05-02T09:18:30.054Z,34.10
2019-05-02T09:20:56.619Z,34.37
2019-05-02T09:23:27.579Z,36.07
2019-05-02T09:25:56.070Z,36.03
2019-05-02T09:28:25.593Z,36.63
2019-05-02T09:31:02.918Z,35.80
2019-05-02T09:33:36.779Z,32.17
2019-05-02T09:36:03.420Z,30.37
2019-05-02T09:38:32.937Z,32.30
2019-05-02T09:41:15.408Z,31.27
2019-05-02T09:43:34.850Z,30.83
2019-05-02T09:46:07.431Z,31.60
2019-05-02T09:48:35.402Z,30.60
2019-05-02T09:51:12.538Z,33.57
2019-05-02T09:53:35.933Z,32.03
2019-05-02T09:56:05.740Z,34.23
2019-05-02T09:58:35.000Z,34.10
2019-05-02T10:01:17.358Z,33.40
2019-05-02T10:03:46.951Z,32.60
2019-05-02T10:06:31.360Z,30.40
2019-05-02T10:08:59.458Z,32.50
2019-05-02T10:11:29.428Z,33.67
2019-05-02T10:13:58.712Z,34.30
2019-05-02T10:16:27.934Z,34.13
2019-05-02T10:19:00.346Z,34.83
2019-05-02T10:21:28.208Z,36.30
2019-05-02T10:23:59.530Z,35.70
2019-05-02T10:26:28.452Z,31.73
2019-05-02T10:28:57.735Z,34.03
2019-05-02T10:31:27.512Z,32.33
2019-05-02T10:33:58.011Z,32.70
2019-05-02T10:36:27.296Z,31.03
2019-05-02T10:38:59.261Z,32.30
2019-05-02T10:41:31.704Z,34.67
2019-05-02T10:43:59.585Z,35.50
2019-05-02T10:46:37.767Z,33.13
2019-05-02T10:49:15.378Z,32.07
2019-05-02T10:51:49.547Z,29.77
2019-05-02T10:54:15.616Z,33.23
2019-05-02T10:56:44.860Z,35.63
2019-05-02T10:59:14.140Z,34.23
2019-05-02T11:02:02.566Z,33.13
2019-05-02T11:04:34.445Z,32.43
2019-05-02T11:07:03.737Z,31.67
2019-05-02T11:09:33.078Z,32.33
2019-05-02T11:12:04.062Z,25.33
2019-05-02T11:14:45.249Z,25.70
2019-05-02T11:17:28.274Z,27.37
2019-05-02T11:20:01.886Z,29.00
2019-05-02T11:22:32.108Z,28.83
2019-05-02T11:25:02.027Z,30.33
2019-05-02T11:27:32.877Z,29.60
2019-05-02T11:30:07.334Z,31.23
2019-05-02T11:32:37.521Z,27.20
2019-05-02T11:35:12.230Z,26.53
2019-05-02T11:37:51.595Z,25.60
2019-05-02T11:40:36.912Z,27.07
2019-05-02T11:43:07.161Z,24.17
2019-05-02T11:45:36.516Z,23.43
2019-05-02T11:48:09.192Z,21.93
2019-05-02T11:50:52.501Z,20.70
2019-05-02T11:53:28.473Z,22.03
2019-05-02T11:55:58.253Z,22.47
2019-05-02T11:58:25.481Z,23.37
2019-05-02T12:00:54.734Z,22.70
2019-05-02T12:03:35.549Z,21.57
2019-05-02T12:06:06.565Z,20.80
2019-05-02T12:08:34.302Z,17.30
2019-05-02T12:11:03.940Z,19.30
2019-05-02T12:13:33.194Z,20.47
2019-05-02T12:16:22.874Z,19.23
2019-05-02T12:22:02.631Z,16.83
2019-05-02T12:24:32.072Z,16.97
2019-05-02T12:27:02.791Z,17.37
2019-05-02T12:29:33.490Z,18.73
2019-05-02T12:32:02.865Z,19.20
2019-05-02T12:34:32.585Z,18.30
2019-05-02T12:37:02.007Z,17.47
2019-05-02T12:39:31.726Z,18.53
2019-05-02T12:42:03.060Z,15.97
2019-05-02T12:44:32.222Z,15.50
2019-05-02T12:47:02.633Z,18.40
2019-05-02T12:49:32.517Z,17.97
2019-05-02T12:52:01.920Z,13.87
2019-05-02T12:54:32.513Z,14.60
2019-05-02T12:57:02.199Z,13.20
2019-05-02T12:59:32.177Z,15.37
2019-05-02T13:02:03.543Z,13.83
2019-05-02T13:04:32.778Z,15.90
2019-05-02T13:07:02.253Z,16.03
2019-05-02T13:09:32.598Z,14.03
2019-05-02T13:12:10.105Z,13.20
2019-05-02T13:14:39.495Z,13.27
2019-05-02T13:17:08.766Z,10.43
2019-05-02T13:19:41.600Z,8.17
2019-05-02T13:22:28.007Z,8.63
2019-05-02T13:25:10.452Z,9.03
2019-05-02T13:27:46.086Z,9.50
2019-05-02T13:30:17.532Z,11.03
2019-05-02T13:32:53.773Z,10.57
2019-05-02T13:35:42.703Z,10.90
2019-05-02T13:38:16.310Z,10.37
2019-05-02T13:40:45.869Z,12.20
2019-05-02T13:43:15.189Z,11.37
2019-05-02T13:46:12.602Z,11.63
2019-05-02T13:48:42.916Z,12.40
2019-05-02T13:51:12.292Z,15.77
2019-05-02T13:53:57.143Z,15.23
2019-05-02T13:56:45.389Z,15.97
2019-05-02T13:59:15.191Z,13.50
2019-05-02T14:01:45.984Z,15.93
2019-05-02T14:04:15.264Z,15.20
2019-05-02T14:06:44.485Z,13.77
2019-05-02T14:09:36.185Z,15.63
2019-05-02T14:12:23.330Z,17.00
2019-05-02T14:14:52.615Z,16.27
2019-05-02T14:17:22.930Z,15.13
2019-05-02T14:20:01.149Z,14.90
2019-05-02T14:22:23.283Z,15.07
2019-05-02T14:24:52.561Z,14.70
2019-05-02T14:27:23.181Z,14.77
2019-05-02T14:29:55.707Z,16.93
2019-05-02T14:32:26.603Z,17.10
2019-05-02T14:35:12.536Z,17.90
2019-05-02T14:37:42.175Z,19.30
2019-05-02T14:40:25.149Z,19.90
2019-05-02T14:42:57.873Z,19.40
2019-05-02T14:45:30.345Z,19.10
2019-05-02T14:48:04.060Z,19.87
2019-05-02T14:50:28.592Z,17.33
2019-05-02T14:53:02.628Z,18.20
2019-05-02T14:55:38.498Z,20.90
2019-05-02T14:58:08.798Z,19.73
2019-05-02T15:00:45.791Z,19.60
2019-05-02T15:03:12.966Z,19.80
2019-05-02T15:06:04.075Z,21.47
2019-05-02T15:08:45.257Z,22.20
2019-05-02T15:11:14.902Z,21.73
2019-05-02T15:13:44.235Z,21.50
2019-05-02T15:16:40.343Z,23.53
2019-05-02T15:19:03.513Z,20.00
2019-05-02T15:21:42.298Z,21.90
2019-05-02T15:24:33.285Z,24.67
2019-05-02T15:27:03.988Z,25.57
2019-05-02T15:29:32.479Z,19.67
2019-05-02T15:32:15.279Z,24.43
2019-05-02T15:35:09.171Z,32.80
2019-05-02T15:37:38.784Z,35.70
2019-05-02T15:42:42.256Z,41.23
2019-05-02T15:45:12.521Z,29.13
2019-05-02T15:47:45.166Z,44.73
2019-05-02T15:50:16.349Z,33.30
2019-05-02T15:53:32.426Z,28.40
2019-05-02T15:56:02.199Z,27.70
2019-05-02T15:58:32.484Z,39.23
2019-05-02T16:01:18.274Z,33.70
2019-05-02T16:03:49.508Z,36.77
2019-05-02T16:06:36.323Z,30.27
2019-05-02T16:09:08.518Z,36.93
2019-05-02T16:11:37.869Z,21.83
2019-05-02T16:14:07.639Z,25.23
2019-05-02T16:16:41.866Z,24.53
2019-05-02T16:19:14.886Z,30.60
2019-05-02T16:21:49.697Z,20.93
2019-05-02T16:24:23.264Z,16.67
2019-05-02T16:26:56.626Z,14.70
2019-05-02T16:29:28.844Z,15.83
2019-05-02T16:32:03.611Z,16.17
2019-05-02T16:34:35.428Z,20.03
2019-05-02T16:37:13.279Z,19.00
2019-05-02T16:39:49.633Z,15.37
2019-05-02T16:42:22.733Z,16.70
2019-05-02T16:44:54.636Z,15.73
2019-05-02T16:47:34.053Z,19.37
2019-05-02T16:50:03.328Z,17.37
2019-05-02T16:52:32.812Z,16.87
2019-05-02T16:55:02.876Z,17.63
2019-05-02T16:57:35.098Z,20.07
2019-05-02T17:00:06.173Z,19.80
2019-05-02T17:02:37.839Z,19.97
2019-05-02T17:05:09.346Z,18.53
2019-05-02T17:07:56.707Z,19.03
2019-05-02T17:10:29.699Z,18.53
2019-05-02T17:13:02.764Z,18.03
2019-05-02T17:15:35.258Z,31.50
2019-05-02T17:18:12.716Z,17.27
2019-05-02T17:20:37.331Z,19.77
2019-05-02T17:23:07.782Z,17.73
2019-05-02T17:25:38.067Z,16.47
2019-05-02T17:28:10.652Z,15.43
2019-05-02T17:30:40.502Z,16.47
2019-05-02T17:33:12.918Z,17.73
2019-05-02T17:35:48.794Z,14.67
2019-05-02T17:38:12.197Z,16.10
2019-05-02T17:40:42.149Z,16.93
2019-05-02T17:43:12.032Z,17.93
2019-05-02T17:45:41.357Z,17.90
2019-05-02T17:48:16.178Z,17.77
2019-05-02T17:50:56.032Z,18.17
2019-05-02T17:53:22.505Z,18.67
2019-05-02T17:55:52.611Z,18.73
2019-05-02T17:58:21.930Z,18.27
2019-05-02T18:00:56.949Z,15.33
2019-05-02T18:03:31.131Z,16.40
2019-05-02T18:05:57.261Z,16.90
2019-05-02T18:08:27.171Z,18.97
2019-05-02T18:11:03.745Z,18.27
2019-05-02T18:13:33.840Z,17.67
2019-05-02T18:16:07.751Z,16.43
2019-05-02T18:18:37.570Z,17.43
2019-05-02T18:21:06.421Z,16.47
2019-05-02T18:23:36.035Z,13.80
2019-05-02T18:26:08.409Z,14.87
2019-05-02T18:28:47.027Z,15.03
2019-05-02T18:31:12.202Z,16.17
2019-05-02T18:33:42.547Z,16.53
2019-05-02T18:36:12.077Z,16.47
2019-05-02T18:38:41.898Z,15.83
2019-05-02T18:41:12.095Z,16.50
2019-05-02T18:43:45.207Z,18.10
2019-05-02T18:46:12.954Z,17.87
2019-05-02T18:48:46.794Z,18.90
2019-05-02T18:51:17.250Z,18.83
2019-05-02T18:53:44.395Z,20.00
2019-05-02T18:56:13.669Z,19.60
2019-05-02T18:58:45.145Z,19.60
2019-05-02T19:01:17.823Z,21.13
2019-05-02T19:03:52.506Z,21.20
2019-05-02T19:06:19.016Z,22.93
2019-05-02T19:08:52.284Z,24.10
2019-05-02T19:11:22.133Z,22.73
2019-05-02T19:13:52.669Z,22.30
2019-05-02T19:16:24.983Z,21.07
2019-05-02T19:18:57.024Z,20.43
2019-05-02T19:21:26.460Z,20.10
2019-05-02T19:23:56.551Z,23.07
2019-05-02T19:26:25.900Z,22.83
2019-05-02T19:29:02.830Z,22.80
2019-05-02T19:31:44.959Z,24.53
2019-05-02T19:34:16.811Z,26.73
2019-05-02T19:36:43.961Z,26.33
2019-05-02T19:39:13.409Z,26.80
2019-05-02T19:41:45.339Z,28.10
2019-05-02T19:44:15.392Z,26.93
2019-05-02T19:46:45.182Z,27.53
2019-05-02T19:49:16.304Z,27.93
2019-05-02T19:51:50.468Z,26.30
2019-05-02T19:54:17.507Z,26.33
2019-05-02T19:56:47.637Z,26.20
2019-05-02T19:59:24.555Z,26.73
2019-05-02T20:01:48.393Z,27.13
2019-05-02T20:04:17.644Z,27.00
2019-05-02T20:06:46.931Z,27.57
2019-05-02T20:09:16.491Z,27.83
2019-05-02T20:11:45.836Z,25.27
2019-05-02T20:14:15.079Z,29.57
2019-05-02T20:16:50.106Z,29.90
2019-05-02T20:19:25.311Z,28.80
2019-05-02T20:22:06.763Z,29.97
2019-05-02T20:24:58.315Z,29.17
2019-05-02T20:27:27.951Z,31.17
2019-05-02T20:29:57.084Z,28.23
2019-05-02T20:32:26.530Z,32.23
2019-05-02T20:35:04.916Z,31.90
2019-05-02T20:37:34.366Z,30.37
2019-05-02T20:40:03.790Z,29.47
2019-05-02T20:42:33.130Z,31.03
2019-05-02T20:45:12.772Z,31.90
2019-05-02T20:55:41.786Z,29.53
2019-05-02T20:58:12.657Z,27.37
2019-05-02T21:00:42.699Z,27.50
2019-05-02T21:03:12.085Z,21.43
2019-05-02T21:06:06.599Z,12.17
2019-05-02T21:08:52.655Z,10.93
2019-05-02T21:11:22.431Z,12.97
2019-05-02T21:13:52.477Z,15.90
2019-05-02T21:16:22.179Z,14.33
2019-05-02T21:22:27.215Z,12.40
2019-05-02T21:24:56.490Z,12.60
2019-05-02T21:27:25.770Z,13.23
2019-05-02T21:29:55.030Z,13.00
2019-05-02T21:32:24.301Z,15.27
2019-05-02T21:34:53.859Z,16.10
2019-05-02T21:37:23.182Z,16.77
2019-05-02T21:39:52.846Z,16.67
2019-05-02T21:42:22.698Z,15.73
2019-05-02T21:44:52.045Z,17.53
2019-05-02T21:47:22.518Z,17.10
2019-05-02T21:50:09.272Z,14.80
2019-05-02T21:53:03.915Z,11.87
2019-05-02T21:55:58.025Z,10.27
2019-05-02T21:58:29.473Z,10.57
2019-05-02T22:01:07.056Z,7.67
2019-05-02T22:03:36.401Z,9.60
2019-05-02T22:06:06.274Z,9.00
2019-05-02T22:08:35.943Z,9.30
2019-05-02T22:11:05.866Z,9.67
2019-05-02T22:13:35.416Z,9.90
2019-05-02T22:16:04.690Z,9.77
2019-05-02T22:18:33.997Z,9.33
2019-05-02T22:21:03.239Z,9.57
2019-05-02T22:23:33.991Z,9.13
2019-05-02T22:26:03.706Z,9.37
2019-05-02T22:28:32.973Z,8.97
2019-05-02T22:31:03.258Z,8.87
2019-05-02T22:33:32.932Z,8.53
2019-05-02T22:36:02.205Z,8.77
2019-05-02T22:38:50.506Z,9.57
2019-05-02T22:41:22.026Z,8.93
2019-05-02T22:43:50.694Z,9.60
2019-05-02T22:46:43.298Z,8.47
2019-05-02T22:49:14.742Z,9.90
2019-05-02T22:51:44.824Z,9.33
2019-05-02T22:54:26.705Z,9.20
2019-05-02T22:56:46.055Z,9.40
2019-05-02T22:59:15.313Z,10.07
2019-05-02T23:01:44.542Z,9.57
2019-05-02T23:04:13.740Z,8.80
2019-05-02T23:06:44.232Z,9.17
2019-05-02T23:09:13.717Z,8.87
2019-05-02T23:11:42.986Z,8.73
2019-05-02T23:14:12.213Z,8.43
2019-05-02T23:16:42.770Z,9.30
2019-05-02T23:19:12.542Z,7.97
2019-05-02T23:21:42.468Z,8.83
2019-05-02T23:24:23.734Z,9.17
2019-05-02T23:27:02.300Z,8.70
2019-05-02T23:29:31.846Z,9.50
2019-05-02T23:32:02.368Z,8.17
2019-05-02T23:34:32.439Z,9.07
2019-05-02T23:37:02.626Z,9.37
2019-05-02T23:39:32.359Z,9.67
2019-05-02T23:42:01.979Z,9.73
2019-05-02T23:44:31.341Z,9.43
2019-05-02T23:47:02.234Z,9.27
2019-05-02T23:49:32.462Z,10.27
2019-05-02T23:52:02.261Z,9.33
2019-05-02T23:54:32.418Z,10.40
2019-05-02T23:57:01.827Z,10.33
2019-05-02T23:59:31.770Z,9.93
